createdAt,value
2018-02-07T00:00:52.452Z,26.43
2018-02-07T00:03:18.255Z,26.93
2018-02-07T00:05:44.030Z,27.40
2018-02-07T00:08:09.842Z,25.10
2018-02-07T00:10:35.635Z,30.87
2018-02-07T00:13:01.419Z,25.87
2018-02-07T00:15:27.236Z,21.33
2018-02-07T00:17:53.015Z,33.80
2018-02-07T00:20:18.810Z,30.80
2018-02-07T00:22:44.616Z,32.53
2018-02-07T00:25:10.406Z,34.60
2018-02-07T00:27:36.241Z,27.57
2018-02-07T00:30:02.055Z,26.93
2018-02-07T00:32:27.825Z,27.03
2018-02-07T00:34:53.606Z,34.13
2018-02-07T00:37:19.380Z,28.77
2018-02-07T00:39:45.178Z,27.80
2018-02-07T00:42:10.956Z,29.93
2018-02-07T00:44:36.733Z,25.67
2018-02-07T00:47:02.550Z,25.00
2018-02-07T00:49:28.322Z,33.07
2018-02-07T00:51:54.103Z,27.37
2018-02-07T00:54:20.138Z,24.47
2018-02-07T00:56:45.928Z,25.65
2018-02-07T00:59:11.695Z,29.50
2018-02-07T01:01:37.510Z,25.57
2018-02-07T01:04:03.284Z,27.97
2018-02-07T01:06:29.074Z,31.90
2018-02-07T01:08:54.912Z,27.07
2018-02-07T01:11:20.695Z,27.47
2018-02-07T01:13:46.475Z,31.50
2018-02-07T01:16:12.282Z,30.37
2018-02-07T01:18:38.184Z,29.17
2018-02-07T01:21:03.986Z,27.20
2018-02-07T01:23:29.774Z,30.50
2018-02-07T01:25:55.559Z,29.70
2018-02-07T01:28:21.334Z,30.47
2018-02-07T01:30:47.274Z,28.83
2018-02-07T01:33:13.065Z,32.87
2018-02-07T01:35:38.852Z,29.63
2018-02-07T01:38:04.658Z,26.20
2018-02-07T01:40:30.454Z,30.63
2018-02-07T01:42:56.238Z,34.03
2018-02-07T01:45:22.034Z,32.00
2018-02-07T01:47:47.826Z,38.17
2018-02-07T01:50:13.615Z,31.13
2018-02-07T01:52:39.415Z,26.40
2018-02-07T01:55:05.195Z,27.90
2018-02-07T01:57:30.978Z,31.40
2018-02-07T01:59:56.782Z,29.43
2018-02-07T02:02:23.315Z,23.97
2018-02-07T02:04:50.099Z,30.55
2018-02-07T02:07:15.925Z,27.33
2018-02-07T02:09:41.724Z,28.67
2018-02-07T02:12:07.524Z,30.90
2018-02-07T02:14:33.446Z,35.10
2018-02-07T02:16:59.214Z,29.57
2018-02-07T02:19:24.998Z,27.67
2018-02-07T02:21:50.770Z,28.73
2018-02-07T02:24:16.534Z,29.30
2018-02-07T02:26:42.347Z,33.50
2018-02-07T02:29:08.142Z,32.33
2018-02-07T02:31:33.910Z,35.50
2018-02-07T02:33:59.976Z,33.87
2018-02-07T02:36:38.095Z,31.42
2018-02-07T02:39:03.958Z,24.17
2018-02-07T02:41:29.730Z,29.17
2018-02-07T02:43:55.551Z,32.27
2018-02-07T02:46:21.353Z,24.80
2018-02-07T02:48:47.162Z,26.20
2018-02-07T02:51:12.941Z,23.47
2018-02-07T02:53:38.721Z,28.33
2018-02-07T02:56:04.511Z,27.43
2018-02-07T02:58:30.286Z,29.37
2018-02-07T03:00:56.111Z,30.63
2018-02-07T03:03:21.931Z,24.87
2018-02-07T03:05:47.706Z,23.83
2018-02-07T03:08:13.478Z,26.60
2018-02-07T03:10:39.258Z,28.00
2018-02-07T03:13:05.035Z,28.83
2018-02-07T03:15:30.816Z,29.07
2018-02-07T03:17:56.613Z,27.93
2018-02-07T03:20:22.399Z,26.30
2018-02-07T03:22:48.178Z,26.10
2018-02-07T03:25:13.982Z,26.07
2018-02-07T03:27:39.761Z,24.93
2018-02-07T03:30:05.536Z,32.50
2018-02-07T03:32:31.345Z,25.93
2018-02-07T03:34:57.124Z,32.73
2018-02-07T03:37:22.895Z,29.77
2018-02-07T03:39:48.699Z,31.13
2018-02-07T03:42:14.489Z,28.50
2018-02-07T03:44:40.285Z,26.50
2018-02-07T03:47:06.057Z,30.50
2018-02-07T03:49:32.733Z,36.23
2018-02-07T03:51:58.514Z,29.10
2018-02-07T03:54:24.293Z,27.47
2018-02-07T03:56:50.385Z,28.30
2018-02-07T03:59:16.174Z,27.13
2018-02-07T04:01:41.963Z,26.57
2018-02-07T04:04:07.774Z,28.90
2018-02-07T04:06:33.550Z,29.70
2018-02-07T04:08:59.326Z,28.20
2018-02-07T04:11:25.105Z,32.57
2018-02-07T04:13:50.879Z,32.13
2018-02-07T04:16:16.642Z,31.73
2018-02-07T04:18:42.423Z,27.17
2018-02-07T04:21:08.206Z,29.97
2018-02-07T04:23:33.998Z,32.70
2018-02-07T04:25:59.785Z,33.97
2018-02-07T04:28:25.581Z,33.40
2018-02-07T04:30:51.418Z,39.37
2018-02-07T04:33:17.162Z,33.97
2018-02-07T04:35:42.939Z,23.63
2018-02-07T04:38:08.723Z,33.90
2018-02-07T04:40:34.565Z,29.37
2018-02-07T04:43:00.404Z,26.93
2018-02-07T04:45:26.182Z,29.60
2018-02-07T04:47:51.979Z,28.20
2018-02-07T04:50:17.826Z,29.97
2018-02-07T04:52:43.644Z,29.43
2018-02-07T04:55:09.426Z,29.07
2018-02-07T04:57:35.193Z,29.93
2018-02-07T05:00:00.975Z,30.60
2018-02-07T05:02:26.782Z,30.20
2018-02-07T05:04:52.597Z,29.53
2018-02-07T05:07:18.410Z,34.47
2018-02-07T05:09:44.230Z,36.73
2018-02-07T05:12:10.003Z,33.07
2018-02-07T05:14:35.773Z,37.37
2018-02-07T05:17:01.770Z,38.20
2018-02-07T05:19:27.554Z,33.28
2018-02-07T05:21:53.345Z,36.40
2018-02-07T05:24:19.147Z,45.63
2018-02-07T05:26:44.926Z,36.60
2018-02-07T05:29:10.699Z,28.27
2018-02-07T05:31:36.666Z,34.63
2018-02-07T05:34:02.441Z,35.53
2018-02-07T05:36:28.209Z,28.27
2018-02-07T05:38:53.997Z,37.43
2018-02-07T05:41:19.773Z,45.00
2018-02-07T05:43:45.542Z,30.67
2018-02-07T05:46:11.330Z,33.57
2018-02-07T05:48:37.111Z,32.83
2018-02-07T05:51:02.914Z,52.63
2018-02-07T05:53:28.842Z,37.90
2018-02-07T05:55:54.635Z,39.63
2018-02-07T05:58:20.435Z,40.93
2018-02-07T06:00:46.497Z,56.13
2018-02-07T06:03:12.278Z,70.00
2018-02-07T06:05:38.079Z,55.87
2018-02-07T06:08:03.862Z,51.13
2018-02-07T06:10:29.641Z,47.40
2018-02-07T06:12:55.793Z,31.23
2018-02-07T06:15:21.557Z,41.05
2018-02-07T06:17:47.349Z,33.57
2018-02-07T06:20:13.146Z,34.67
2018-02-07T06:22:38.935Z,38.30
2018-02-07T06:25:04.735Z,33.03
2018-02-07T06:27:30.522Z,33.00
2018-02-07T06:29:56.316Z,42.73
2018-02-07T06:32:22.129Z,31.30
2018-02-07T06:34:55.026Z,36.00
2018-02-07T06:37:20.842Z,33.17
2018-02-07T06:39:46.627Z,34.13
2018-02-07T06:42:12.408Z,42.50
2018-02-07T06:44:38.211Z,44.87
2018-02-07T06:47:03.987Z,36.77
2018-02-07T06:49:29.822Z,36.30
2018-02-07T06:51:55.959Z,41.67
2018-02-07T06:54:21.745Z,53.85
2018-02-07T06:56:47.507Z,61.60
2018-02-07T06:59:13.316Z,91.17
2018-02-07T07:01:39.091Z,68.93
2018-02-07T07:04:04.863Z,57.63
2018-02-07T07:06:30.771Z,48.60
2018-02-07T07:08:56.546Z,41.17
2018-02-07T07:11:22.309Z,37.60
2018-02-07T07:13:48.118Z,38.90
2018-02-07T07:16:13.902Z,39.07
2018-02-07T07:18:39.694Z,35.43
2018-02-07T07:21:05.702Z,36.17
2018-02-07T07:23:31.486Z,40.17
2018-02-07T07:25:57.477Z,39.80
2018-02-07T07:28:23.434Z,41.83
2018-02-07T07:30:49.257Z,36.33
2018-02-07T07:33:15.049Z,52.27
2018-02-07T07:35:40.846Z,40.10
2018-02-07T07:38:06.627Z,40.47
2018-02-07T07:40:32.422Z,36.77
2018-02-07T07:42:58.207Z,36.00
2018-02-07T07:45:23.987Z,42.60
2018-02-07T07:47:49.774Z,33.30
2018-02-07T07:50:15.565Z,39.80
2018-02-07T07:52:41.358Z,39.50
2018-02-07T07:55:07.145Z,40.23
2018-02-07T07:57:32.922Z,43.47
2018-02-07T07:59:58.730Z,37.77
2018-02-07T08:02:24.515Z,36.73
2018-02-07T08:04:50.297Z,37.93
2018-02-07T08:07:16.062Z,36.00
2018-02-07T08:09:41.845Z,47.23
2018-02-07T08:12:07.642Z,40.40
2018-02-07T08:14:33.437Z,37.70
2018-02-07T08:16:59.219Z,38.37
2018-02-07T08:19:25.019Z,36.90
2018-02-07T08:21:50.789Z,39.80
2018-02-07T08:24:16.581Z,43.00
2018-02-07T08:26:42.373Z,42.37
2018-02-07T08:29:08.150Z,41.27
2018-02-07T08:31:33.954Z,48.30
2018-02-07T08:33:59.926Z,41.43
2018-02-07T08:36:25.705Z,33.63
2018-02-07T08:38:51.494Z,40.03
2018-02-07T08:41:17.273Z,32.37
2018-02-07T08:43:43.050Z,39.50
2018-02-07T08:46:08.838Z,33.23
2018-02-07T08:48:34.634Z,32.23
2018-02-07T08:51:00.426Z,38.97
2018-02-07T08:53:26.210Z,40.37
2018-02-07T08:55:52.031Z,36.33
2018-02-07T08:58:17.810Z,38.40
2018-02-07T09:00:43.591Z,35.87
2018-02-07T09:03:09.366Z,37.07
2018-02-07T09:05:35.138Z,42.00
2018-02-07T09:08:00.931Z,37.93
2018-02-07T09:10:26.887Z,35.50
2018-02-07T09:12:52.653Z,22.60
2018-02-07T09:15:18.434Z,34.37
2018-02-07T09:17:44.234Z,35.27
2018-02-07T09:20:10.018Z,31.10
2018-02-07T09:22:35.804Z,34.30
2018-02-07T09:25:01.592Z,27.80
2018-02-07T09:27:27.389Z,29.30
2018-02-07T09:29:53.167Z,30.57
2018-02-07T09:32:18.956Z,29.33
2018-02-07T09:34:44.788Z,34.87
2018-02-07T09:37:10.570Z,30.13
2018-02-07T09:39:36.392Z,28.80
2018-02-07T09:42:02.318Z,34.07
2018-02-07T09:44:28.117Z,33.60
2018-02-07T09:46:53.918Z,27.10
2018-02-07T09:49:19.731Z,31.17
2018-02-07T09:51:45.520Z,31.43
2018-02-07T09:54:11.295Z,38.13
2018-02-07T09:56:37.087Z,31.00
2018-02-07T09:59:02.849Z,26.53
2018-02-07T10:01:28.622Z,26.30
2018-02-07T10:03:54.685Z,29.37
2018-02-07T10:06:20.462Z,26.62
2018-02-07T10:08:46.269Z,29.90
2018-02-07T10:11:12.055Z,25.37
2018-02-07T10:13:37.850Z,29.10
2018-02-07T10:16:03.667Z,26.30
2018-02-07T10:18:29.445Z,24.30
2018-02-07T10:20:55.242Z,21.80
2018-02-07T10:23:21.051Z,28.57
2018-02-07T10:25:46.845Z,30.63
2018-02-07T10:28:12.628Z,28.20
2018-02-07T10:30:38.674Z,27.80
2018-02-07T10:33:04.479Z,30.08
2018-02-07T10:35:30.267Z,27.00
2018-02-07T10:37:56.073Z,29.23
2018-02-07T10:40:21.862Z,30.13
2018-02-07T10:42:47.641Z,26.60
2018-02-07T10:45:13.462Z,29.03
2018-02-07T10:47:39.271Z,24.23
2018-02-07T10:50:05.334Z,24.40
2018-02-07T10:52:31.152Z,22.25
2018-02-07T10:54:57.355Z,23.73
2018-02-07T10:57:24.232Z,33.80
2018-02-07T10:59:50.047Z,27.85
2018-02-07T11:02:15.851Z,26.63
2018-02-07T11:04:41.637Z,29.60
2018-02-07T11:07:07.649Z,27.00
2018-02-07T11:09:33.825Z,25.55
2018-02-07T11:11:59.603Z,30.02
2018-02-07T11:14:25.378Z,22.57
2018-02-07T11:16:51.446Z,27.77
2018-02-07T11:19:17.276Z,29.40
2018-02-07T11:21:43.302Z,25.23
2018-02-07T11:24:09.102Z,31.55
2018-02-07T11:26:34.950Z,24.27
2018-02-07T11:29:00.742Z,22.90
2018-02-07T11:31:26.615Z,29.47
2018-02-07T11:33:52.751Z,24.17
2018-02-07T11:36:18.563Z,34.28
2018-02-07T11:38:44.345Z,31.23
2018-02-07T11:41:10.130Z,26.10
2018-02-07T11:43:36.208Z,13.60
2018-02-07T11:46:02.074Z,24.85
2018-02-07T11:48:27.860Z,23.90
2018-02-07T11:50:53.658Z,18.80
2018-02-07T11:53:19.984Z,25.73
2018-02-07T11:55:45.772Z,25.67
2018-02-07T11:58:11.740Z,21.80
2018-02-07T12:00:37.566Z,26.40
2018-02-07T12:03:03.350Z,21.30
2018-02-07T12:05:29.140Z,19.50
2018-02-07T12:07:54.967Z,22.53
2018-02-07T12:10:21.057Z,24.47
2018-02-07T12:12:46.880Z,16.23
2018-02-07T12:15:12.883Z,18.77
2018-02-07T12:17:38.672Z,24.73
2018-02-07T12:20:04.463Z,20.63
2018-02-07T12:22:30.279Z,20.00
2018-02-07T12:24:56.079Z,16.80
2018-02-07T12:27:21.887Z,20.37
2018-02-07T12:29:47.679Z,27.30
2018-02-07T12:32:13.807Z,19.87
2018-02-07T12:34:39.874Z,17.12
2018-02-07T12:37:05.685Z,21.30
2018-02-07T12:39:31.495Z,22.67
2018-02-07T12:41:57.299Z,19.47
2018-02-07T12:44:23.334Z,16.87
2018-02-07T12:46:49.516Z,23.80
2018-02-07T12:49:15.910Z,17.93
2018-02-07T12:51:41.733Z,14.37
2018-02-07T12:54:07.510Z,18.50
2018-02-07T12:56:33.631Z,16.90
2018-02-07T12:58:59.870Z,19.53
2018-02-07T13:01:26.032Z,21.17
2018-02-07T13:03:52.386Z,19.60
2018-02-07T13:06:18.206Z,18.90
2018-02-07T13:08:43.997Z,22.57
2018-02-07T13:11:09.815Z,23.23
2018-02-07T13:13:35.590Z,61.43
2018-02-07T13:16:01.644Z,29.60
2018-02-07T13:18:27.751Z,23.10
2018-02-07T13:20:53.574Z,58.73
2018-02-07T13:23:19.362Z,79.50
2018-02-07T13:25:45.162Z,78.43
2018-02-07T13:28:11.153Z,49.23
2018-02-07T13:30:36.957Z,39.97
2018-02-07T13:33:02.753Z,64.80
2018-02-07T13:35:28.459Z,14.87
2018-02-07T13:37:54.452Z,16.03
2018-02-07T13:40:21.428Z,16.60
2018-02-07T13:42:47.117Z,19.80
2018-02-07T13:45:12.799Z,18.33
2018-02-07T13:47:38.874Z,17.30
2018-02-07T13:50:04.635Z,16.53
2018-02-07T13:52:30.284Z,13.40
2018-02-07T13:54:55.988Z,18.47
2018-02-07T13:57:21.673Z,17.43
2018-02-07T13:59:47.344Z,18.07
2018-02-07T14:02:13.065Z,16.67
2018-02-07T14:04:38.740Z,16.13
2018-02-07T14:07:04.436Z,15.53
2018-02-07T14:09:30.217Z,13.87
2018-02-07T14:11:55.916Z,17.87
2018-02-07T14:14:21.576Z,18.10
2018-02-07T14:16:47.269Z,19.93
2018-02-07T14:19:12.986Z,17.07
2018-02-07T14:21:38.825Z,16.23
2018-02-07T14:24:04.544Z,14.93
2018-02-07T14:26:30.238Z,21.33
2018-02-07T14:28:56.949Z,16.73
2018-02-07T14:31:22.621Z,18.00
2018-02-07T14:33:48.300Z,23.73
2018-02-07T14:36:13.985Z,19.67
2018-02-07T14:38:39.698Z,24.90
2018-02-07T14:41:05.401Z,19.53
2018-02-07T14:43:31.113Z,29.20
2018-02-07T14:45:56.819Z,26.00
2018-02-07T14:48:22.492Z,21.43
2018-02-07T14:50:48.972Z,25.30
2018-02-07T14:53:14.736Z,24.60
2018-02-07T14:55:40.427Z,25.90
2018-02-07T14:58:06.346Z,35.93
2018-02-07T15:00:32.061Z,31.20
2018-02-07T15:02:57.737Z,26.30
2018-02-07T15:05:23.414Z,23.53
2018-02-07T15:07:49.134Z,27.90
2018-02-07T15:10:14.931Z,35.23
2018-02-07T15:12:40.629Z,40.90
2018-02-07T15:15:06.601Z,32.27
2018-02-07T15:17:32.273Z,26.77
2018-02-07T15:19:57.952Z,24.03
2018-02-07T15:22:24.260Z,24.70
2018-02-07T15:24:49.979Z,23.20
2018-02-07T15:27:15.769Z,19.33
2018-02-07T15:29:41.704Z,23.30
2018-02-07T15:32:07.384Z,23.17
2018-02-07T15:34:33.058Z,20.10
2018-02-07T15:36:58.761Z,21.00
2018-02-07T15:39:24.442Z,26.27
2018-02-07T15:41:50.130Z,24.07
2018-02-07T15:44:16.094Z,23.03
2018-02-07T15:46:41.805Z,28.13
2018-02-07T15:49:07.494Z,27.70
2018-02-07T15:51:33.672Z,20.73
2018-02-07T15:53:59.349Z,28.25
2018-02-07T15:56:25.050Z,29.50
2018-02-07T15:58:51.005Z,21.47
2018-02-07T16:01:16.940Z,20.77
2018-02-07T16:03:42.707Z,19.27
2018-02-07T16:06:08.473Z,51.73
2018-02-07T16:08:34.189Z,27.23
2018-02-07T16:11:00.857Z,23.43
2018-02-07T16:13:26.823Z,28.00
2018-02-07T16:15:52.520Z,29.80
2018-02-07T16:18:18.202Z,37.80
2018-02-07T16:20:44.360Z,29.60
2018-02-07T16:23:10.040Z,18.37
2018-02-07T16:25:35.741Z,22.20
2018-02-07T16:28:01.453Z,29.40
2018-02-07T16:30:27.417Z,22.30
2018-02-07T16:32:53.169Z,23.43
2018-02-07T16:35:19.091Z,31.97
2018-02-07T16:37:44.802Z,25.40
2018-02-07T16:40:10.937Z,18.50
2018-02-07T16:42:36.632Z,18.60
2018-02-07T16:45:02.763Z,22.43
2018-02-07T16:47:28.544Z,18.33
2018-02-07T16:49:54.242Z,23.03
2018-02-07T16:52:20.215Z,20.63
2018-02-07T16:54:46.656Z,21.10
2018-02-07T16:57:12.562Z,26.17
2018-02-07T16:59:38.317Z,24.23
2018-02-07T17:02:04.279Z,32.10
2018-02-07T17:04:30.113Z,19.97
2018-02-07T17:06:55.900Z,19.20
2018-02-07T17:09:21.737Z,24.73
2018-02-07T17:11:47.669Z,30.50
2018-02-07T17:14:13.370Z,19.50
2018-02-07T17:16:39.254Z,22.87
2018-02-07T17:19:04.979Z,20.00
2018-02-07T17:21:30.781Z,20.83
2018-02-07T17:23:56.632Z,17.67
2018-02-07T17:26:22.382Z,19.43
2018-02-07T17:28:48.076Z,24.10
2018-02-07T17:31:14.246Z,17.13
2018-02-07T17:33:40.099Z,37.47
2018-02-07T17:36:06.213Z,25.50
2018-02-07T17:38:31.913Z,25.17
2018-02-07T17:40:57.593Z,26.23
2018-02-07T17:43:23.278Z,28.20
2018-02-07T17:45:49.266Z,36.70
2018-02-07T17:48:14.989Z,43.90
2018-02-07T17:50:41.040Z,63.93
2018-02-07T17:53:06.757Z,25.37
2018-02-07T17:55:32.435Z,35.67
2018-02-07T17:57:58.117Z,35.27
2018-02-07T18:00:24.353Z,40.37
2018-02-07T18:02:50.037Z,29.77
2018-02-07T18:05:15.733Z,27.27
2018-02-07T18:07:41.424Z,42.10
2018-02-07T18:10:08.064Z,39.80
2018-02-07T18:12:33.744Z,44.50
2018-02-07T18:14:59.429Z,31.87
2018-02-07T18:17:25.146Z,36.83
2018-02-07T18:19:50.838Z,49.23
2018-02-07T18:22:16.508Z,37.60
2018-02-07T18:24:42.376Z,27.20
2018-02-07T18:27:08.057Z,24.90
2018-02-07T18:29:33.732Z,27.40
2018-02-07T18:31:59.701Z,29.63
2018-02-07T18:34:25.381Z,26.60
2018-02-07T18:36:51.099Z,28.80
2018-02-07T18:39:17.165Z,38.23
2018-02-07T18:41:42.845Z,33.13
2018-02-07T18:44:08.538Z,31.00
2018-02-07T18:46:34.253Z,26.40
2018-02-07T18:48:59.947Z,31.90
2018-02-07T18:51:25.632Z,26.83
2018-02-07T18:53:51.364Z,31.70
2018-02-07T18:56:17.049Z,26.30
2018-02-07T18:58:42.720Z,32.20
2018-02-07T19:01:08.404Z,31.30
2018-02-07T19:03:34.087Z,33.30
2018-02-07T19:05:59.770Z,29.43
2018-02-07T19:08:25.754Z,39.77
2018-02-07T19:10:51.438Z,37.90
2018-02-07T19:13:17.119Z,34.60
2018-02-07T19:15:42.853Z,34.40
2018-02-07T19:18:08.533Z,37.27
2018-02-07T19:20:34.215Z,32.80
2018-02-07T19:23:00.157Z,37.67
2018-02-07T19:25:25.857Z,40.90
2018-02-07T19:27:51.545Z,49.33
2018-02-07T19:30:17.282Z,41.70
2018-02-07T19:32:42.985Z,42.43
2018-02-07T19:35:08.763Z,37.83
2018-02-07T19:37:34.475Z,37.93
2018-02-07T19:40:00.169Z,30.03
2018-02-07T19:42:26.033Z,37.67
2018-02-07T19:44:51.781Z,37.47
2018-02-07T19:47:17.472Z,44.93
2018-02-07T19:49:43.436Z,40.07
2018-02-07T19:52:09.118Z,40.70
2018-02-07T19:54:34.801Z,36.70
2018-02-07T19:57:00.942Z,43.43
2018-02-07T19:59:26.637Z,41.17
2018-02-07T20:01:52.693Z,37.47
2018-02-07T20:04:18.415Z,49.95
2018-02-07T20:06:44.356Z,35.03
2018-02-07T20:09:10.188Z,38.23
2018-02-07T20:11:35.928Z,43.80
2018-02-07T20:14:01.630Z,41.80
2018-02-07T20:16:27.410Z,36.23
2018-02-07T20:18:53.277Z,42.67
2018-02-07T20:21:18.967Z,45.77
2018-02-07T20:23:44.883Z,36.03
2018-02-07T20:26:10.614Z,36.83
2018-02-07T20:28:36.307Z,43.53
2018-02-07T20:31:02.205Z,52.97
2018-02-07T20:33:28.420Z,37.20
2018-02-07T20:35:54.153Z,42.25
2018-02-07T20:38:19.841Z,40.87
2018-02-07T20:40:45.867Z,42.33
2018-02-07T20:43:11.565Z,40.17
2018-02-07T20:45:37.255Z,42.03
2018-02-07T20:48:03.105Z,50.20
2018-02-07T20:50:28.810Z,47.23
2018-02-07T20:52:54.497Z,56.17
2018-02-07T20:55:20.210Z,50.40
2018-02-07T20:57:45.913Z,53.43
2018-02-07T21:00:11.609Z,47.43
2018-02-07T21:02:37.340Z,41.87
2018-02-07T21:05:03.097Z,41.07
2018-02-07T21:07:28.800Z,56.80
2018-02-07T21:09:54.571Z,49.47
2018-02-07T21:12:20.273Z,53.97
2018-02-07T21:14:45.961Z,48.63
2018-02-07T21:17:11.681Z,47.37
2018-02-07T21:19:37.361Z,54.50
2018-02-07T21:22:03.034Z,51.40
2018-02-07T21:24:28.751Z,43.80
2018-02-07T21:26:54.504Z,44.37
2018-02-07T21:29:20.293Z,55.47
2018-02-07T21:31:46.037Z,51.00
2018-02-07T21:34:12.066Z,48.93
2018-02-07T21:36:37.813Z,41.25
2018-02-07T21:39:03.808Z,48.17
2018-02-07T21:41:29.609Z,50.65
2018-02-07T21:43:55.317Z,53.40
2018-02-07T21:46:21.043Z,43.43
2018-02-07T21:48:46.745Z,47.00
2018-02-07T21:51:12.437Z,51.87
2018-02-07T21:53:38.245Z,54.77
2018-02-07T21:56:04.613Z,56.43
2018-02-07T21:58:30.329Z,56.95
2018-02-07T22:00:56.802Z,47.40
2018-02-07T22:03:22.525Z,57.40
2018-02-07T22:05:48.221Z,51.10
2018-02-07T22:08:13.963Z,58.63
2018-02-07T22:10:46.504Z,54.73
2018-02-07T22:13:12.873Z,47.97
2018-02-07T22:15:38.633Z,48.45
2018-02-07T22:18:05.158Z,45.70
2018-02-07T22:20:30.849Z,40.45
2018-02-07T22:22:56.564Z,50.67
2018-02-07T22:25:22.247Z,57.20
2018-02-07T22:27:54.750Z,54.77
2018-02-07T22:30:21.489Z,50.90
2018-02-07T22:32:48.303Z,53.20
2018-02-07T22:35:14.041Z,47.62
2018-02-07T22:37:40.156Z,45.13
2018-02-07T22:40:06.184Z,45.97
2018-02-07T22:42:32.813Z,55.08
2018-02-07T22:44:58.496Z,71.75
2018-02-07T22:47:25.371Z,56.40
2018-02-07T22:49:51.113Z,59.63
2018-02-07T22:52:16.788Z,56.97
2018-02-07T22:54:42.528Z,57.37
2018-02-07T22:57:08.868Z,44.97
2018-02-07T22:59:34.566Z,53.22
2018-02-07T23:02:00.690Z,58.37
2018-02-07T23:04:26.601Z,61.35
2018-02-07T23:06:52.270Z,70.97
2018-02-07T23:09:18.615Z,67.87
2018-02-07T23:11:44.312Z,59.25
2018-02-07T23:14:10.381Z,68.90
2018-02-07T23:16:36.060Z,67.40
2018-02-07T23:19:02.708Z,65.47
2018-02-07T23:21:28.445Z,62.83
2018-02-07T23:23:54.117Z,65.67
2018-02-07T23:26:19.804Z,66.87
2018-02-07T23:28:45.489Z,65.83
2018-02-07T23:31:11.152Z,65.63
2018-02-07T23:33:36.857Z,71.20
2018-02-07T23:36:02.579Z,72.23
2018-02-07T23:38:28.270Z,66.27
2018-02-07T23:41:00.778Z,70.03
2018-02-07T23:43:26.465Z,58.15
2018-02-07T23:45:52.152Z,66.83
2018-02-07T23:48:17.828Z,61.37
2018-02-07T23:50:43.526Z,54.30
2018-02-07T23:53:09.218Z,58.93
2018-02-07T23:55:34.907Z,63.50
2018-02-07T23:58:00.580Z,68.53
